Time;durP1;ratioP1;P1;durP2;ratioP2;P2;SDS_P1;SDS_P2;PMS_P1;PMS_P2;Temp;Humidity;BMP_temperature;BMP_pressure;BME280_temperature;BME280_humidity;BME280_pressure;Samples;Min_cycle;Max_cycle;Signal;HPM_P1;HPM_P2
2023/03/07 00:02:16;;;;;;;7.50;5.53;;;7.80;80.60;;;;;;4939466;29;20272;-79
2023/03/07 00:04:45;;;;;;;9.13;6.00;;;7.70;80.50;;;;;;4917594;29;20239;-79
2023/03/07 00:07:16;;;;;;;9.97;6.00;;;7.70;80.50;;;;;;4923486;29;20212;-79
2023/03/07 00:09:43;;;;;;;7.50;5.47;;;7.70;80.50;;;;;;4935884;29;20645;-79
2023/03/07 00:12:10;;;;;;;7.77;5.07;;;7.70;80.40;;;;;;4934651;29;20239;-79
2023/03/07 00:14:38;;;;;;;6.77;5.10;;;7.70;80.50;;;;;;4924205;29;20826;-79
2023/03/07 00:17:05;;;;;;;8.27;5.17;;;7.70;80.40;;;;;;4935008;29;20294;-79
2023/03/07 00:19:33;;;;;;;8.43;4.93;;;7.60;80.30;;;;;;4933417;29;20209;-79
2023/03/07 00:22:03;;;;;;;9.77;5.17;;;7.60;80.30;;;;;;4936352;29;20214;-79
2023/03/07 00:24:31;;;;;;;11.53;6.17;;;7.60;80.30;;;;;;4934457;29;20268;-79
2023/03/07 00:26:58;;;;;;;8.73;5.20;;;7.60;80.20;;;;;;4937541;29;20248;-79
2023/03/07 00:29:28;;;;;;;6.73;5.57;;;7.60;80.20;;;;;;4936905;29;20209;-79
2023/03/07 00:31:55;;;;;;;7.30;5.67;;;7.60;80.00;;;;;;4936224;29;20277;-79
2023/03/07 00:34:23;;;;;;;8.80;5.60;;;7.60;80.00;;;;;;4936920;29;20207;-79
2023/03/07 00:36:52;;;;;;;8.23;5.13;;;7.50;80.10;;;;;;4942947;29;20206;-79
2023/03/07 00:39:19;;;;;;;6.20;4.77;;;7.50;80.30;;;;;;4937854;29;20210;-79
2023/03/07 00:41:47;;;;;;;9.83;5.27;;;7.50;80.30;;;;;;4931215;29;20233;-79
2023/03/07 00:44:14;;;;;;;9.33;5.10;;;7.50;80.20;;;;;;4918047;29;20211;-79
2023/03/07 00:46:41;;;;;;;9.27;5.07;;;7.50;80.30;;;;;;4951536;29;20216;-78
2023/03/07 00:49:08;;;;;;;7.27;5.47;;;7.40;80.00;;;;;;4930265;29;20203;-78
2023/03/07 00:51:35;;;;;;;8.23;5.70;;;7.30;79.70;;;;;;4929685;28;20237;-80
2023/03/07 00:54:03;;;;;;;7.67;5.40;;;7.30;79.90;;;;;;4944711;29;20682;-79
2023/03/07 00:56:30;;;;;;;8.80;5.73;;;7.20;79.60;;;;;;4942644;29;20196;-79
2023/03/07 00:58:57;;;;;;;6.07;5.07;;;7.20;80.20;;;;;;4916215;29;20214;-82
2023/03/07 01:01:25;;;;;;;9.73;6.00;;;7.10;79.90;;;;;;4934321;29;20224;-78
2023/03/07 01:03:53;;;;;;;8.10;5.83;;;7.10;80.00;;;;;;4928862;29;20203;-79
2023/03/07 01:06:23;;;;;;;8.40;5.67;;;7.10;80.10;;;;;;4924401;29;20686;-79
2023/03/07 01:08:54;;;;;;;10.07;5.70;;;7.10;80.30;;;;;;4937761;29;20204;-79
2023/03/07 01:11:22;;;;;;;10.43;6.00;;;7.00;80.40;;;;;;4936828;29;20588;-79
2023/03/07 01:13:49;;;;;;;8.30;5.87;;;7.00;80.40;;;;;;4926329;29;20221;-80
2023/03/07 01:16:20;;;;;;;8.60;6.13;;;7.00;80.60;;;;;;4933238;29;20649;-79
2023/03/07 01:18:53;;;;;;;7.97;6.43;;;7.00;80.70;;;;;;4921509;29;20207;-79
2023/03/07 01:21:29;;;;;;;8.03;6.10;;;7.00;80.70;;;;;;4934556;29;20264;-79
2023/03/07 01:24:00;;;;;;;9.80;6.30;;;7.10;80.80;;;;;;4923390;29;20322;-79
2023/03/07 01:26:30;;;;;;;9.00;5.77;;;7.10;80.80;;;;;;4928699;29;20228;-79
2023/03/07 01:29:00;;;;;;;9.57;6.13;;;7.10;80.40;;;;;;4929321;29;20278;-79
2023/03/07 01:31:31;;;;;;;10.70;5.73;;;7.10;80.30;;;;;;4934157;29;20648;-79
2023/03/07 01:34:01;;;;;;;8.83;6.00;;;7.00;80.40;;;;;;4926176;29;20202;-79
2023/03/07 01:36:33;;;;;;;12.63;5.87;;;7.00;80.40;;;;;;4935372;29;20202;-79
2023/03/07 01:39:13;;;;;;;8.73;6.13;;;7.00;80.40;;;;;;4932179;29;20245;-79
2023/03/07 01:41:54;;;;;;;8.53;6.13;;;7.00;81.00;;;;;;4934034;29;20211;-79
2023/03/07 01:44:26;;;;;;;9.37;6.30;;;7.00;80.40;;;;;;4929791;29;20214;-80
2023/03/07 01:46:59;;;;;;;10.50;5.73;;;7.00;80.40;;;;;;4934960;29;20218;-79
2023/03/07 01:49:46;;;;;;;10.10;5.60;;;7.00;80.40;;;;;;4939616;29;20540;-79
2023/03/07 01:52:22;;;;;;;10.30;5.77;;;7.00;80.40;;;;;;4932790;29;20218;-79
2023/03/07 01:55:10;;;;;;;9.43;5.50;;;7.00;80.30;;;;;;4918145;29;20253;-79
2023/03/07 01:57:40;;;;;;;9.13;5.23;;;7.00;80.10;;;;;;4934611;29;20220;-79
2023/03/07 02:00:12;;;;;;;8.10;5.33;;;7.00;80.00;;;;;;4939133;29;20630;-79
2023/03/07 02:02:44;;;;;;;7.07;5.67;;;7.00;79.90;;;;;;4944818;29;20221;-79
2023/03/07 02:05:33;;;;;;;9.70;4.37;;;7.00;79.50;;;;;;4935289;29;20552;-80
2023/03/07 02:08:02;;;;;;;6.77;4.63;;;7.00;79.30;;;;;;4921626;29;20254;-78
2023/03/07 02:10:32;;;;;;;8.70;5.20;;;7.00;79.00;;;;;;4915218;29;20536;-79
2023/03/07 02:13:00;;;;;;;8.03;4.13;;;7.00;78.90;;;;;;4935816;29;20202;-79
2023/03/07 02:15:28;;;;;;;8.00;4.87;;;7.00;78.80;;;;;;4922166;29;20206;-79
2023/03/07 02:17:57;;;;;;;10.80;5.27;;;7.00;78.70;;;;;;4923113;29;20208;-79
2023/03/07 02:20:39;;;;;;;8.23;5.50;;;7.00;78.60;;;;;;4936325;29;20220;-79
2023/03/07 02:23:15;;;;;;;11.17;6.20;;;7.00;78.40;;;;;;4935878;29;20246;-79
2023/03/07 02:26:16;;;;;;;8.03;5.30;;;7.00;78.20;;;;;;4941807;29;20224;-79
2023/03/07 02:28:46;;;;;;;7.47;4.83;;;6.90;78.40;;;;;;4930862;29;20262;-79
2023/03/07 02:31:14;;;;;;;11.07;4.80;;;6.90;78.30;;;;;;4936564;29;20211;-79
2023/03/07 02:33:41;;;;;;;7.90;5.70;;;6.90;78.20;;;;;;4929899;29;20290;-79
2023/03/07 02:36:15;;;;;;;10.60;5.20;;;6.80;78.10;;;;;;4934275;29;20212;-79
2023/03/07 02:38:53;;;;;;;8.90;4.93;;;6.80;78.20;;;;;;4937323;29;20213;-80
2023/03/07 02:41:30;;;;;;;6.60;5.13;;;6.70;78.40;;;;;;4915036;29;20266;-79
2023/03/07 02:44:02;;;;;;;7.53;5.10;;;6.60;78.50;;;;;;4922389;29;20211;-78
2023/03/07 02:46:30;;;;;;;8.07;5.07;;;6.50;78.70;;;;;;4929822;29;20310;-79
2023/03/07 02:48:57;;;;;;;6.77;5.30;;;6.50;78.90;;;;;;4933736;29;20203;-79
2023/03/07 02:51:24;;;;;;;6.33;5.20;;;6.40;79.10;;;;;;4914374;29;20260;-79
2023/03/07 02:53:51;;;;;;;8.67;5.57;;;6.40;79.40;;;;;;4935772;29;20611;-79
2023/03/07 02:56:19;;;;;;;8.27;5.37;;;6.40;79.70;;;;;;4918062;29;20285;-79
2023/03/07 02:58:46;;;;;;;7.53;5.37;;;6.40;79.80;;;;;;4940023;29;20289;-79
2023/03/07 03:01:13;;;;;;;6.73;5.40;;;6.40;79.80;;;;;;4929850;29;20583;-79
2023/03/07 03:03:41;;;;;;;7.40;5.43;;;6.30;79.70;;;;;;4936543;29;20293;-78
2023/03/07 03:06:09;;;;;;;7.37;4.97;;;6.30;79.50;;;;;;4935365;29;20225;-79
2023/03/07 03:08:36;;;;;;;7.20;5.03;;;6.30;79.50;;;;;;4934773;29;20207;-81
2023/03/07 03:11:03;;;;;;;8.17;5.37;;;6.30;79.10;;;;;;4920170;29;20222;-78
2023/03/07 03:13:32;;;;;;;6.30;4.97;;;6.30;78.80;;;;;;4914091;29;20210;-79
2023/03/07 03:16:00;;;;;;;9.03;5.10;;;6.20;79.00;;;;;;4930154;29;20270;-79
2023/03/07 03:18:28;;;;;;;8.33;5.60;;;6.20;78.60;;;;;;4925539;29;20309;-78
2023/03/07 03:20:58;;;;;;;12.00;5.53;;;6.20;78.70;;;;;;4921937;29;20282;-79
2023/03/07 03:23:28;;;;;;;10.40;5.07;;;6.20;78.70;;;;;;4931880;29;20242;-78
2023/03/07 03:25:59;;;;;;;7.63;5.20;;;6.20;78.60;;;;;;4920058;29;20681;-78
2023/03/07 03:28:30;;;;;;;9.63;5.37;;;6.20;78.70;;;;;;4931294;29;20202;-78
2023/03/07 03:31:03;;;;;;;7.77;5.50;;;6.20;78.80;;;;;;4937836;29;20203;-78
2023/03/07 03:33:31;;;;;;;9.87;4.90;;;6.10;79.00;;;;;;4932778;29;20601;-78
2023/03/07 03:36:00;;;;;;;8.77;4.90;;;6.20;79.10;;;;;;4922355;29;20298;-78
2023/03/07 03:38:27;;;;;;;7.10;4.87;;;6.20;79.10;;;;;;4916120;29;20289;-79
2023/03/07 03:40:55;;;;;;;8.40;5.33;;;6.10;78.90;;;;;;4913791;29;20226;-79
2023/03/07 03:43:23;;;;;;;10.50;5.00;;;6.20;79.70;;;;;;4937098;29;20237;-78
2023/03/07 03:45:55;;;;;;;10.57;5.03;;;6.10;78.60;;;;;;4934499;29;20218;-78
2023/03/07 03:48:25;;;;;;;8.77;4.77;;;6.10;78.00;;;;;;4937909;29;20232;-78
2023/03/07 03:51:09;;;;;;;8.10;4.90;;;6.00;78.00;;;;;;4924472;29;20238;-78
2023/03/07 03:53:38;;;;;;;10.90;4.97;;;5.90;78.10;;;;;;4945078;29;20206;-79
2023/03/07 03:56:08;;;;;;;9.57;5.50;;;5.90;78.30;;;;;;4939525;29;20202;-79
2023/03/07 03:58:35;;;;;;;8.37;5.17;;;5.80;78.40;;;;;;4938285;29;20589;-79
2023/03/07 04:01:04;;;;;;;8.63;5.40;;;5.70;78.80;;;;;;4921364;29;20231;-79
2023/03/07 04:03:33;;;;;;;8.40;4.77;;;5.60;79.40;;;;;;4925927;29;20593;-78
2023/03/07 04:06:03;;;;;;;8.57;5.17;;;5.60;79.90;;;;;;4935047;29;20230;-79
2023/03/07 04:08:32;;;;;;;9.40;4.63;;;5.60;80.30;;;;;;4940978;29;20194;-78
2023/03/07 04:10:59;;;;;;;9.97;5.50;;;5.60;80.60;;;;;;4934896;29;20194;-78
2023/03/07 04:13:27;;;;;;;9.67;7.30;;;5.60;80.70;;;;;;4922682;29;20261;-78
2023/03/07 04:15:54;;;;;;;8.50;4.93;;;5.50;80.70;;;;;;4936010;29;20301;-78
2023/03/07 04:18:23;;;;;;;9.17;5.03;;;5.50;80.80;;;;;;4931549;29;20223;-78
2023/03/07 04:20:51;;;;;;;6.57;5.17;;;5.50;81.00;;;;;;4919111;29;20206;-78
2023/03/07 04:23:20;;;;;;;7.03;4.90;;;5.50;81.10;;;;;;4923191;29;20305;-78
2023/03/07 04:25:49;;;;;;;7.73;4.90;;;5.60;81.10;;;;;;4922097;29;20202;-78
2023/03/07 04:28:17;;;;;;;7.77;5.43;;;5.50;81.00;;;;;;4923910;29;20194;-78
2023/03/07 04:30:45;;;;;;;6.33;4.70;;;5.50;81.10;;;;;;4937780;29;20199;-78
2023/03/07 04:33:13;;;;;;;7.80;4.80;;;5.50;81.20;;;;;;4939129;29;20225;-78
2023/03/07 04:35:41;;;;;;;8.07;4.97;;;5.40;81.30;;;;;;4937180;29;20273;-79
2023/03/07 04:38:08;;;;;;;8.20;5.07;;;5.40;81.60;;;;;;4936806;29;20290;-78
2023/03/07 04:40:35;;;;;;;6.00;4.60;;;5.40;81.80;;;;;;4944667;29;20207;-78
2023/03/07 04:43:04;;;;;;;6.97;4.30;;;5.40;81.50;;;;;;4934928;29;20210;-78
2023/03/07 04:45:34;;;;;;;6.03;4.83;;;5.30;80.60;;;;;;4940365;29;20282;-78
2023/03/07 04:48:02;;;;;;;10.73;5.90;;;5.20;80.60;;;;;;4937702;29;20238;-78
2023/03/07 04:50:30;;;;;;;9.87;5.33;;;5.20;81.00;;;;;;4937075;29;20553;-78
2023/03/07 04:52:57;;;;;;;8.87;5.93;;;5.10;81.50;;;;;;4940348;29;20234;-79
2023/03/07 04:55:25;;;;;;;7.07;5.73;;;5.20;81.90;;;;;;4940323;29;20207;-79
2023/03/07 04:57:52;;;;;;;8.10;5.83;;;5.10;81.90;;;;;;4940382;29;20241;-78
2023/03/07 05:00:19;;;;;;;13.23;5.33;;;5.20;82.00;;;;;;4943876;29;20604;-78
2023/03/07 05:02:48;;;;;;;13.63;6.00;;;5.20;82.10;;;;;;4939103;29;20203;-78
2023/03/07 05:05:17;;;;;;;14.63;5.67;;;5.20;82.10;;;;;;4936215;29;20536;-78
2023/03/07 05:07:44;;;;;;;11.97;5.90;;;5.20;81.90;;;;;;4923948;29;20668;-78
2023/03/07 05:10:12;;;;;;;7.90;4.93;;;5.20;81.90;;;;;;4941838;29;20209;-79
2023/03/07 05:12:39;;;;;;;8.27;5.07;;;5.20;81.90;;;;;;4935939;29;20258;-79
2023/03/07 05:15:07;;;;;;;6.77;5.27;;;5.10;82.00;;;;;;4926934;29;20202;-78
2023/03/07 05:17:36;;;;;;;9.57;5.67;;;5.10;82.30;;;;;;4915752;29;20636;-79
2023/03/07 05:20:03;;;;;;;8.83;5.00;;;5.10;82.50;;;;;;4929241;29;20219;-79
2023/03/07 05:22:30;;;;;;;7.43;5.60;;;5.10;82.50;;;;;;4946709;29;20652;-79
2023/03/07 05:24:57;;;;;;;8.97;5.67;;;5.10;82.60;;;;;;4925841;29;20245;-79
2023/03/07 05:27:25;;;;;;;10.70;5.43;;;5.10;82.60;;;;;;4932442;29;20227;-78
2023/03/07 05:29:52;;;;;;;9.20;5.73;;;5.20;82.70;;;;;;4937427;29;20595;-78
2023/03/07 05:32:20;;;;;;;10.13;5.67;;;5.20;82.20;;;;;;4928340;29;20320;-78
2023/03/07 05:34:47;;;;;;;10.13;6.13;;;5.10;82.10;;;;;;4931040;29;20218;-79
2023/03/07 05:37:17;;;;;;;15.57;7.70;;;5.10;82.00;;;;;;4936859;29;20205;-78
2023/03/07 05:39:44;;;;;;;12.07;6.77;;;5.10;82.10;;;;;;4930960;29;20633;-78
2023/03/07 05:42:12;;;;;;;8.90;5.73;;;5.10;82.20;;;;;;4920393;29;20665;-78
2023/03/07 05:44:39;;;;;;;7.67;5.77;;;5.00;81.90;;;;;;4944109;29;20294;-79
2023/03/07 05:47:06;;;;;;;12.07;6.13;;;5.00;81.70;;;;;;4935796;29;20321;-82
2023/03/07 05:49:34;;;;;;;6.80;4.43;;;5.00;81.90;;;;;;4924003;29;20221;-79
2023/03/07 05:52:01;;;;;;;11.10;6.60;;;4.90;82.10;;;;;;4939028;29;20213;-79
2023/03/07 05:54:28;;;;;;;6.63;4.50;;;4.90;82.40;;;;;;4930161;29;20210;-79
2023/03/07 05:56:55;;;;;;;8.43;4.47;;;5.00;82.70;;;;;;4931184;29;20242;-79
2023/03/07 05:59:23;;;;;;;9.23;6.13;;;5.00;82.70;;;;;;4929418;29;20619;-79
2023/03/07 06:01:51;;;;;;;14.00;6.93;;;5.00;82.70;;;;;;4938477;29;20234;-79
2023/03/07 06:04:19;;;;;;;9.37;5.80;;;5.00;82.70;;;;;;4938595;29;20273;-79
2023/03/07 06:06:46;;;;;;;7.83;5.20;;;5.10;82.80;;;;;;4928787;29;20270;-78
2023/03/07 06:09:13;;;;;;;7.90;5.10;;;5.10;82.60;;;;;;4929689;29;20210;-79
2023/03/07 06:11:40;;;;;;;9.97;7.00;;;5.10;82.50;;;;;;4928910;29;20206;-79
2023/03/07 06:14:09;;;;;;;13.73;6.67;;;5.20;82.60;;;;;;4919877;29;20207;-78
2023/03/07 06:16:37;;;;;;;14.70;6.53;;;5.30;82.60;;;;;;4936452;29;20202;-78
2023/03/07 06:19:05;;;;;;;8.77;6.40;;;5.30;82.70;;;;;;4935385;29;20241;-78
2023/03/07 06:21:32;;;;;;;11.23;6.70;;;5.50;82.60;;;;;;4942200;29;20218;-78
2023/03/07 06:23:59;;;;;;;10.00;6.17;;;5.70;82.20;;;;;;4926171;29;20337;-79
2023/03/07 06:26:27;;;;;;;13.67;6.40;;;5.80;81.70;;;;;;4942175;29;20209;-78
2023/03/07 06:28:54;;;;;;;9.13;5.90;;;5.90;81.50;;;;;;4920324;29;20202;-79
2023/03/07 06:31:24;;;;;;;12.60;6.03;;;6.00;81.10;;;;;;4932760;29;20205;-79
2023/03/07 06:33:53;;;;;;;8.73;6.03;;;6.10;80.90;;;;;;4921358;29;20294;-79
2023/03/07 06:36:24;;;;;;;7.77;5.77;;;6.20;80.60;;;;;;4937207;29;20273;-79
2023/03/07 06:38:59;;;;;;;6.03;5.07;;;6.40;80.40;;;;;;4936250;29;20308;-79
2023/03/07 06:41:27;;;;;;;11.40;5.30;;;6.50;80.10;;;;;;4938333;29;20546;-78
2023/03/07 06:43:56;;;;;;;10.73;5.60;;;6.60;79.90;;;;;;4917224;29;20202;-79
2023/03/07 06:46:26;;;;;;;12.23;6.53;;;6.80;79.80;;;;;;4922960;29;20294;-78
2023/03/07 06:48:54;;;;;;;9.30;6.53;;;6.90;79.70;;;;;;4922335;29;20206;-78
2023/03/07 06:51:22;;;;;;;11.47;6.20;;;6.90;79.60;;;;;;4912856;29;20199;-78
2023/03/07 06:53:52;;;;;;;9.93;6.10;;;7.00;79.70;;;;;;4917055;29;20269;-77
2023/03/07 06:56:19;;;;;;;9.53;6.93;;;7.10;79.80;;;;;;4938051;29;20207;-78
2023/03/07 06:58:47;;;;;;;8.63;6.97;;;7.10;79.90;;;;;;4914673;29;20256;-78
2023/03/07 07:01:17;;;;;;;9.40;6.77;;;7.20;80.20;;;;;;4929108;29;20650;-79
2023/03/07 07:03:46;;;;;;;9.90;6.50;;;7.20;80.40;;;;;;4931096;29;20218;-78
2023/03/07 07:06:14;;;;;;;12.50;6.73;;;7.40;80.40;;;;;;4935552;29;20215;-79
2023/03/07 07:08:41;;;;;;;11.80;7.23;;;7.50;80.60;;;;;;4944165;29;20239;-78
2023/03/07 07:11:09;;;;;;;12.43;7.40;;;7.60;80.70;;;;;;4929305;29;20214;-79
2023/03/07 07:13:37;;;;;;;11.23;7.53;;;7.70;81.00;;;;;;4941846;29;20636;-78
2023/03/07 07:16:08;;;;;;;13.80;6.83;;;7.90;81.10;;;;;;4918619;29;20205;-78
2023/03/07 07:18:37;;;;;;;10.47;6.60;;;8.00;81.70;;;;;;4911177;29;20207;-78
2023/03/07 07:21:05;;;;;;;9.97;7.07;;;8.20;81.00;;;;;;4929565;29;20214;-78
2023/03/07 07:23:32;;;;;;;13.47;7.10;;;8.40;80.70;;;;;;4933877;29;21959;-78
2023/03/07 07:26:01;;;;;;;9.73;7.00;;;8.60;80.40;;;;;;4916387;29;20237;-79
2023/03/07 07:28:30;;;;;;;13.73;7.87;;;8.90;80.20;;;;;;4927304;29;20756;-78
2023/03/07 07:30:59;;;;;;;15.63;7.70;;;9.10;80.00;;;;;;4913588;29;20606;-79
2023/03/07 07:33:27;;;;;;;13.43;7.17;;;9.30;79.30;;;;;;4928230;29;20264;-79
2023/03/07 07:35:54;;;;;;;14.20;6.87;;;9.50;78.30;;;;;;4927897;29;20223;-80
2023/03/07 07:38:21;;;;;;;17.10;7.47;;;9.70;77.90;;;;;;4936637;29;20212;-78
2023/03/07 07:40:49;;;;;;;10.97;7.07;;;9.80;78.20;;;;;;4927198;29;20206;-78
2023/03/07 07:43:17;;;;;;;14.80;8.17;;;10.00;78.10;;;;;;4931697;29;20295;-78
2023/03/07 07:45:52;;;;;;;16.20;8.00;;;10.20;77.40;;;;;;4921994;29;20216;-78
2023/03/07 07:48:21;;;;;;;10.90;6.20;;;10.40;77.30;;;;;;4931199;29;20562;-77
2023/03/07 07:50:48;;;;;;;10.57;5.83;;;10.50;77.00;;;;;;4930409;29;20268;-79
2023/03/07 07:53:18;;;;;;;12.70;7.70;;;10.80;75.90;;;;;;4923363;29;20206;-79
2023/03/07 07:55:47;;;;;;;13.30;7.60;;;11.00;75.80;;;;;;4918511;29;20229;-78
2023/03/07 07:58:15;;;;;;;13.87;7.53;;;11.20;75.50;;;;;;4928531;29;20554;-78
2023/03/07 08:00:44;;;;;;;8.40;6.30;;;11.30;75.50;;;;;;4929523;29;20265;-79
2023/03/07 08:03:11;;;;;;;10.87;6.67;;;11.50;74.90;;;;;;4922399;29;20210;-80
2023/03/07 08:05:43;;;;;;;13.93;8.53;;;11.70;74.40;;;;;;4920393;29;20640;-79
2023/03/07 08:08:10;;;;;;;12.03;5.50;;;11.90;73.40;;;;;;4914069;29;20684;-79
2023/03/07 08:10:41;;;;;;;12.50;6.77;;;12.10;72.70;;;;;;4935618;29;20199;-79
2023/03/07 08:13:13;;;;;;;8.00;5.50;;;12.30;71.30;;;;;;4912853;29;20294;-79
2023/03/07 08:15:44;;;;;;;15.60;7.70;;;12.40;68.80;;;;;;4935932;29;20202;-79
2023/03/07 08:18:11;;;;;;;10.67;5.60;;;12.60;68.00;;;;;;4915218;29;20210;-79
2023/03/07 08:20:40;;;;;;;10.50;7.10;;;12.70;67.20;;;;;;4927991;29;20230;-80
2023/03/07 08:23:07;;;;;;;15.07;6.00;;;12.90;67.10;;;;;;4923609;29;20225;-79
2023/03/07 08:25:35;;;;;;;10.50;6.07;;;13.00;66.70;;;;;;4938755;29;20214;-79
2023/03/07 08:28:04;;;;;;;13.63;5.60;;;13.10;66.20;;;;;;4929841;29;20219;-78
2023/03/07 08:30:34;;;;;;;8.27;5.27;;;13.30;65.70;;;;;;4942778;29;20245;-79
2023/03/07 08:33:02;;;;;;;9.10;5.50;;;13.50;64.30;;;;;;4925117;29;20269;-79
2023/03/07 08:35:30;;;;;;;11.40;5.77;;;13.60;64.00;;;;;;4939131;29;20238;-78
2023/03/07 08:38:00;;;;;;;17.30;6.40;;;13.80;64.10;;;;;;4942816;29;20226;-78
2023/03/07 08:40:29;;;;;;;16.23;6.73;;;14.00;64.50;;;;;;4921860;29;20203;-78
2023/03/07 08:42:58;;;;;;;11.17;5.90;;;14.20;64.80;;;;;;4940676;29;20231;-78
2023/03/07 08:45:25;;;;;;;14.00;5.33;;;14.40;64.80;;;;;;4927781;29;20217;-79
2023/03/07 08:47:53;;;;;;;8.37;5.13;;;14.70;64.30;;;;;;4943108;29;20229;-77
2023/03/07 08:50:23;;;;;;;9.00;5.17;;;14.90;63.70;;;;;;4923782;29;20222;-79
2023/03/07 08:52:50;;;;;;;9.23;5.70;;;15.00;63.20;;;;;;4937581;29;20212;-78
2023/03/07 08:55:19;;;;;;;10.20;5.57;;;15.20;62.60;;;;;;4934307;29;20203;-79
2023/03/07 08:57:46;;;;;;;10.87;5.13;;;15.40;61.80;;;;;;4920801;29;20207;-79
2023/03/07 09:00:14;;;;;;;15.30;5.60;;;15.50;61.50;;;;;;4931558;29;20226;-79
2023/03/07 09:02:42;;;;;;;13.70;5.33;;;15.70;61.50;;;;;;4940152;29;20210;-79
2023/03/07 09:05:09;;;;;;;10.13;4.70;;;15.80;61.50;;;;;;4932093;29;20649;-79
2023/03/07 09:07:36;;;;;;;11.13;5.67;;;15.90;61.10;;;;;;4934139;29;20246;-79
2023/03/07 09:10:04;;;;;;;11.60;5.27;;;16.00;60.70;;;;;;4945121;29;20525;-79
2023/03/07 09:12:32;;;;;;;10.93;4.63;;;16.10;60.30;;;;;;4948736;29;20213;-79
2023/03/07 09:15:00;;;;;;;6.93;5.03;;;16.20;60.00;;;;;;4937178;29;20630;-79
2023/03/07 09:17:29;;;;;;;10.43;5.20;;;16.30;58.90;;;;;;4932377;29;20235;-80
2023/03/07 09:19:56;;;;;;;8.00;4.67;;;16.30;57.40;;;;;;4946356;29;20201;-79
2023/03/07 09:22:23;;;;;;;8.10;4.93;;;16.30;58.20;;;;;;4922303;29;20215;-78
2023/03/07 09:24:50;;;;;;;7.37;4.90;;;16.30;58.40;;;;;;4931372;29;20244;-79
2023/03/07 09:27:17;;;;;;;9.67;4.67;;;16.30;58.70;;;;;;4927568;29;20224;-78
2023/03/07 09:29:46;;;;;;;8.03;4.50;;;16.40;59.10;;;;;;4919625;29;20295;-78
2023/03/07 09:32:13;;;;;;;8.23;4.57;;;16.50;58.90;;;;;;4929504;29;20204;-79
2023/03/07 09:34:40;;;;;;;6.17;3.93;;;16.60;58.60;;;;;;4927958;29;20264;-78
2023/03/07 09:37:07;;;;;;;8.70;3.90;;;16.80;58.30;;;;;;4929222;29;20218;-78
2023/03/07 09:39:34;;;;;;;11.83;4.27;;;16.80;57.30;;;;;;4919151;29;20199;-78
2023/03/07 09:42:30;;;;;;;12.77;4.33;;;17.00;57.30;;;;;;4921087;29;20217;-79
2023/03/07 09:45:01;;;;;;;6.03;4.20;;;17.10;57.00;;;;;;4910498;29;20202;-79
2023/03/07 09:48:27;;;;;;;9.63;5.00;;;17.20;56.20;;;;;;4917355;29;20668;-78
2023/03/07 09:50:54;;;;;;;7.77;4.17;;;17.30;55.50;;;;;;4933095;29;20535;-80
2023/03/07 09:53:33;;;;;;;6.80;4.10;;;17.40;55.00;;;;;;4935145;29;20256;-79
2023/03/07 09:56:03;;;;;;;7.50;3.70;;;17.40;53.70;;;;;;4942305;29;20641;-78
2023/03/07 09:58:31;;;;;;;6.73;4.37;;;17.40;54.10;;;;;;4940319;29;20246;-79
2023/03/07 10:01:00;;;;;;;11.37;4.43;;;17.40;54.50;;;;;;4939754;29;20204;-77
2023/03/07 10:03:54;;;;;;;11.00;4.10;;;17.50;53.70;;;;;;4917502;29;20209;-78
2023/03/07 10:06:32;;;;;;;10.03;4.40;;;17.50;52.90;;;;;;4919998;29;20229;-79
2023/03/07 10:09:00;;;;;;;10.43;4.47;;;17.50;52.70;;;;;;4918606;29;20609;-78
2023/03/07 10:11:28;;;;;;;6.10;3.50;;;17.50;53.20;;;;;;4935248;29;20630;-77
2023/03/07 10:14:20;;;;;;;5.77;3.00;;;17.60;52.50;;;;;;4914074;29;20270;-78
2023/03/07 10:17:12;;;;;;;7.53;4.03;;;17.60;51.60;;;;;;4925647;29;20205;-78
2023/03/07 10:19:50;;;;;;;6.70;3.57;;;17.60;51.00;;;;;;4927772;29;20601;-78
2023/03/07 10:22:58;;;;;;;6.33;3.87;;;17.70;51.80;;;;;;4938827;29;20208;-78
2023/03/07 10:25:30;;;;;;;6.57;3.77;;;17.70;50.40;;;;;;4908824;29;20227;-78
2023/03/07 10:28:17;;;;;;;8.30;3.50;;;17.80;51.00;;;;;;4927358;29;20262;-78
2023/03/07 10:30:47;;;;;;;8.83;3.77;;;17.80;51.30;;;;;;4915515;29;20197;-78
2023/03/07 10:33:18;;;;;;;7.27;3.40;;;17.90;51.30;;;;;;4931742;29;20204;-77
2023/03/07 10:36:11;;;;;;;11.00;3.30;;;18.00;51.20;;;;;;4931473;29;20549;-78
2023/03/07 10:38:50;;;;;;;7.47;3.90;;;18.20;50.50;;;;;;4936294;29;20257;-77
2023/03/07 10:41:20;;;;;;;8.47;3.60;;;18.30;50.10;;;;;;4932722;29;20598;-78
2023/03/07 10:43:49;;;;;;;6.27;4.20;;;18.40;50.00;;;;;;4916439;29;20592;-77
2023/03/07 10:46:28;;;;;;;5.33;3.47;;;18.40;49.50;;;;;;4915201;29;20224;-78
2023/03/07 10:49:03;;;;;;;7.20;4.13;;;18.30;48.10;;;;;;4931626;29;20316;-77
2023/03/07 10:51:49;;;;;;;9.17;3.40;;;18.30;48.20;;;;;;4927847;29;20226;-79
2023/03/07 10:54:21;;;;;;;7.77;3.57;;;18.30;48.30;;;;;;4927546;29;20637;-76
2023/03/07 10:57:08;;;;;;;11.17;3.47;;;18.20;48.80;;;;;;4929434;29;20211;-77
2023/03/07 10:59:37;;;;;;;6.70;4.10;;;18.20;47.40;;;;;;4929311;29;20221;-79
2023/03/07 11:02:27;;;;;;;7.27;3.60;;;18.20;48.60;;;;;;4928415;29;20223;-79
2023/03/07 11:04:54;;;;;;;8.17;3.60;;;18.30;48.90;;;;;;4941805;29;20211;-80
2023/03/07 11:07:33;;;;;;;6.03;3.40;;;18.30;48.30;;;;;;4931088;29;20215;-77
2023/03/07 11:10:21;;;;;;;6.10;4.17;;;18.40;48.90;;;;;;4928756;29;20217;-80
2023/03/07 11:12:48;;;;;;;8.23;3.83;;;18.40;48.10;;;;;;4928023;29;20217;-79
2023/03/07 11:15:23;;;;;;;7.43;3.80;;;18.50;48.10;;;;;;4934067;29;20213;-79
2023/03/07 11:17:51;;;;;;;10.80;3.70;;;18.40;47.20;;;;;;4924778;29;20641;-78
2023/03/07 11:20:21;;;;;;;7.23;4.07;;;18.50;47.80;;;;;;4919772;29;20677;-78
2023/03/07 11:22:49;;;;;;;6.10;3.20;;;18.50;46.70;;;;;;4915867;29;20198;-78
2023/03/07 11:25:25;;;;;;;7.80;4.17;;;18.60;46.20;;;;;;4933721;29;20230;-79
2023/03/07 11:27:57;;;;;;;6.60;3.70;;;18.60;46.80;;;;;;4933061;29;20268;-78
2023/03/07 11:30:46;;;;;;;9.07;3.33;;;18.60;46.20;;;;;;4918783;29;20216;-78
2023/03/07 11:33:19;;;;;;;11.33;3.10;;;18.60;46.30;;;;;;4923323;29;20232;-78
2023/03/07 11:35:57;;;;;;;8.60;3.43;;;18.60;46.70;;;;;;4914769;29;20221;-79
2023/03/07 11:38:42;;;;;;;10.93;3.93;;;18.70;46.60;;;;;;4921270;29;20238;-79
2023/03/07 11:41:38;;;;;;;9.27;3.63;;;18.80;46.60;;;;;;4921259;29;20205;-78
2023/03/07 11:44:29;;;;;;;7.57;4.00;;;18.90;46.50;;;;;;4941387;29;20592;-79
2023/03/07 11:47:12;;;;;;;5.63;3.13;;;18.90;46.50;;;;;;4934160;29;20217;-79
2023/03/07 11:50:05;;;;;;;6.57;2.93;;;19.10;47.00;;;;;;4925575;29;20529;-78
2023/03/07 11:52:53;;;;;;;5.80;3.20;;;19.20;46.60;;;;;;4937805;29;20272;-78
2023/03/07 11:55:54;;;;;;;9.23;3.70;;;19.30;46.10;;;;;;4935484;29;20289;-78
2023/03/07 11:58:49;;;;;;;11.87;4.03;;;19.40;45.70;;;;;;4913364;29;20554;-79
2023/03/07 12:01:25;;;;;;;6.57;3.50;;;19.50;44.50;;;;;;4919883;29;20234;-79
2023/03/07 12:03:57;;;;;;;7.53;3.13;;;19.60;45.30;;;;;;4934023;29;20268;-78
2023/03/07 12:06:47;;;;;;;6.10;3.43;;;19.60;44.90;;;;;;4916270;29;20207;-79
2023/03/07 12:09:43;;;;;;;6.73;3.27;;;19.70;45.30;;;;;;4933421;29;20610;-80
2023/03/07 12:12:24;;;;;;;10.27;3.80;;;19.70;45.50;;;;;;4922138;29;20221;-78
2023/03/07 12:15:34;;;;;;;9.13;3.37;;;19.80;44.80;;;;;;4927662;29;20221;-77
2023/03/07 12:18:20;;;;;;;7.50;3.80;;;19.80;44.00;;;;;;4920609;29;20222;-77
2023/03/07 12:20:53;;;;;;;7.43;3.23;;;19.80;43.30;;;;;;4941089;29;20201;-78
2023/03/07 12:23:36;;;;;;;12.60;3.90;;;19.80;42.60;;;;;;4931511;29;20313;-78
2023/03/07 12:26:19;;;;;;;5.93;3.10;;;19.60;42.10;;;;;;4928024;29;20207;-79
2023/03/07 12:28:55;;;;;;;11.07;3.70;;;19.60;43.50;;;;;;4931652;29;20214;-78
2023/03/07 12:31:40;;;;;;;7.70;4.03;;;19.50;45.10;;;;;;4939800;29;20288;-78
2023/03/07 12:34:19;;;;;;;7.97;3.97;;;19.60;45.10;;;;;;4932090;29;20213;-79
2023/03/07 12:36:53;;;;;;;10.63;3.33;;;19.60;44.90;;;;;;4913806;29;20199;-78
2023/03/07 12:39:29;;;;;;;5.33;3.33;;;19.70;45.70;;;;;;4921377;29;20226;-78
2023/03/07 12:42:15;;;;;;;6.43;3.90;;;19.70;44.70;;;;;;4929916;29;20212;-78
2023/03/07 12:44:53;;;;;;;6.77;3.20;;;19.70;42.70;;;;;;4932882;29;20243;-78
2023/03/07 12:47:33;;;;;;;8.27;3.53;;;19.60;42.80;;;;;;4930414;29;20662;-79
2023/03/07 12:50:40;;;;;;;7.17;3.33;;;19.70;43.60;;;;;;4940660;29;20215;-78
2023/03/07 12:53:21;;;;;;;6.57;3.47;;;19.70;44.70;;;;;;4934346;29;20203;-78
2023/03/07 12:56:05;;;;;;;11.93;3.57;;;19.80;44.70;;;;;;4932474;29;20223;-79
2023/03/07 12:58:52;;;;;;;6.83;3.50;;;19.80;44.20;;;;;;4940746;29;20226;-78
2023/03/07 13:01:22;;;;;;;10.87;3.80;;;19.80;44.30;;;;;;4929432;29;20221;-77
2023/03/07 13:04:19;;;;;;;10.00;4.23;;;19.90;44.50;;;;;;4940583;29;20201;-78
2023/03/07 13:07:05;;;;;;;8.00;3.50;;;19.90;44.00;;;;;;4917570;29;20233;-79
2023/03/07 13:09:42;;;;;;;14.80;4.33;;;20.00;43.80;;;;;;4929445;29;20229;-79
2023/03/07 13:12:24;;;;;;;6.37;3.17;;;19.90;44.00;;;;;;4911289;29;20626;-79
2023/03/07 13:15:18;;;;;;;7.03;3.20;;;19.80;44.00;;;;;;4932377;29;20199;-79
2023/03/07 13:17:45;;;;;;;8.70;3.43;;;19.70;43.80;;;;;;4909248;29;20307;-78